sensor_id;sensor_type;location;lat;lon;timestamp;P1;durP1;ratioP1;P2;durP2;ratioP2
12832;SDS011;6483;51.310;4.462;2022-09-09T00:02:16;6.15;;;4.80;;
12832;SDS011;6483;51.310;4.462;2022-09-09T00:07:43;9.20;;;5.18;;
12832;SDS011;6483;51.310;4.462;2022-09-09T00:10:28;10.20;;;5.40;;
12832;SDS011;6483;51.310;4.462;2022-09-09T00:16:20;8.30;;;5.13;;
12832;SDS011;6483;51.310;4.462;2022-09-09T00:21:38;10.82;;;5.90;;
12832;SDS011;6483;51.310;4.462;2022-09-09T00:24:22;9.90;;;6.10;;
12832;SDS011;6483;51.310;4.462;2022-09-09T00:30:15;8.40;;;6.20;;
12832;SDS011;6483;51.310;4.462;2022-09-09T00:32:49;11.03;;;5.80;;
12832;SDS011;6483;51.310;4.462;2022-09-09T00:35:38;11.32;;;6.00;;
12832;SDS011;6483;51.310;4.462;2022-09-09T00:38:28;9.82;;;5.70;;
12832;SDS011;6483;51.310;4.462;2022-09-09T00:44:03;8.65;;;6.40;;
12832;SDS011;6483;51.310;4.462;2022-09-09T00:52:40;7.53;;;5.47;;
12832;SDS011;6483;51.310;4.462;2022-09-09T00:55:35;7.43;;;5.68;;
12832;SDS011;6483;51.310;4.462;2022-09-09T00:58:11;8.57;;;5.30;;
12832;SDS011;6483;51.310;4.462;2022-09-09T01:00:44;7.78;;;5.88;;
12832;SDS011;6483;51.310;4.462;2022-09-09T01:03:44;9.30;;;5.50;;
12832;SDS011;6483;51.310;4.462;2022-09-09T01:14:40;10.98;;;6.20;;
12832;SDS011;6483;51.310;4.462;2022-09-09T01:17:16;8.85;;;4.97;;
12832;SDS011;6483;51.310;4.462;2022-09-09T01:22:30;7.43;;;5.30;;
12832;SDS011;6483;51.310;4.462;2022-09-09T01:28:16;10.80;;;5.38;;
12832;SDS011;6483;51.310;4.462;2022-09-09T01:30:47;8.85;;;5.05;;
12832;SDS011;6483;51.310;4.462;2022-09-09T01:33:17;10.63;;;4.28;;
12832;SDS011;6483;51.310;4.462;2022-09-09T01:35:47;7.53;;;4.40;;
12832;SDS011;6483;51.310;4.462;2022-09-09T01:38:19;6.10;;;4.28;;
12832;SDS011;6483;51.310;4.462;2022-09-09T01:40:49;7.40;;;4.65;;
12832;SDS011;6483;51.310;4.462;2022-09-09T01:43:22;5.13;;;4.22;;
12832;SDS011;6483;51.310;4.462;2022-09-09T01:45:51;5.93;;;4.70;;
12832;SDS011;6483;51.310;4.462;2022-09-09T01:48:19;5.63;;;4.80;;
12832;SDS011;6483;51.310;4.462;2022-09-09T01:50:49;7.07;;;4.67;;
12832;SDS011;6483;51.310;4.462;2022-09-09T01:53:17;6.03;;;4.43;;
12832;SDS011;6483;51.310;4.462;2022-09-09T02:01:17;8.57;;;4.30;;
12832;SDS011;6483;51.310;4.462;2022-09-09T02:03:51;6.03;;;4.30;;
12832;SDS011;6483;51.310;4.462;2022-09-09T02:06:27;9.87;;;4.90;;
12832;SDS011;6483;51.310;4.462;2022-09-09T02:08:57;10.00;;;4.87;;
12832;SDS011;6483;51.310;4.462;2022-09-09T02:11:25;5.95;;;4.30;;
12832;SDS011;6483;51.310;4.462;2022-09-09T02:13:53;8.88;;;4.28;;
12832;SDS011;6483;51.310;4.462;2022-09-09T02:16:44;6.05;;;3.50;;
12832;SDS011;6483;51.310;4.462;2022-09-09T02:19:39;5.80;;;3.60;;
12832;SDS011;6483;51.310;4.462;2022-09-09T02:22:52;6.97;;;4.75;;
12832;SDS011;6483;51.310;4.462;2022-09-09T02:25:20;8.03;;;4.53;;
12832;SDS011;6483;51.310;4.462;2022-09-09T02:27:52;7.23;;;3.90;;
12832;SDS011;6483;51.310;4.462;2022-09-09T02:30:19;8.85;;;4.45;;
12832;SDS011;6483;51.310;4.462;2022-09-09T02:32:45;7.73;;;4.00;;
12832;SDS011;6483;51.310;4.462;2022-09-09T02:35:19;8.83;;;4.40;;
12832;SDS011;6483;51.310;4.462;2022-09-09T02:37:53;8.57;;;4.10;;
12832;SDS011;6483;51.310;4.462;2022-09-09T02:40:21;6.13;;;3.73;;
12832;SDS011;6483;51.310;4.462;2022-09-09T02:42:48;4.38;;;3.42;;
12832;SDS011;6483;51.310;4.462;2022-09-09T02:45:18;6.35;;;3.72;;
12832;SDS011;6483;51.310;4.462;2022-09-09T02:47:56;9.07;;;4.07;;
12832;SDS011;6483;51.310;4.462;2022-09-09T02:50:27;7.60;;;4.00;;
12832;SDS011;6483;51.310;4.462;2022-09-09T02:53:32;7.90;;;3.27;;
12832;SDS011;6483;51.310;4.462;2022-09-09T02:56:18;8.43;;;3.65;;
12832;SDS011;6483;51.310;4.462;2022-09-09T02:58:47;6.20;;;3.45;;
12832;SDS011;6483;51.310;4.462;2022-09-09T03:01:17;6.13;;;3.47;;
12832;SDS011;6483;51.310;4.462;2022-09-09T03:03:42;8.70;;;3.80;;
12832;SDS011;6483;51.310;4.462;2022-09-09T03:06:09;10.40;;;4.45;;
12832;SDS011;6483;51.310;4.462;2022-09-09T03:08:37;9.38;;;3.95;;
12832;SDS011;6483;51.310;4.462;2022-09-09T03:11:05;5.55;;;3.60;;
12832;SDS011;6483;51.310;4.462;2022-09-09T03:13:32;6.63;;;3.70;;
12832;SDS011;6483;51.310;4.462;2022-09-09T03:15:58;8.15;;;4.03;;
12832;SDS011;6483;51.310;4.462;2022-09-09T03:18:29;7.85;;;4.15;;
12832;SDS011;6483;51.310;4.462;2022-09-09T03:20:55;9.68;;;4.25;;
12832;SDS011;6483;51.310;4.462;2022-09-09T03:23:22;6.45;;;3.78;;
12832;SDS011;6483;51.310;4.462;2022-09-09T03:25:48;8.73;;;3.35;;
12832;SDS011;6483;51.310;4.462;2022-09-09T03:28:19;5.35;;;3.40;;
12832;SDS011;6483;51.310;4.462;2022-09-09T03:30:48;8.27;;;4.07;;
12832;SDS011;6483;51.310;4.462;2022-09-09T03:33:14;10.60;;;3.65;;
12832;SDS011;6483;51.310;4.462;2022-09-09T03:35:44;10.80;;;4.23;;
12832;SDS011;6483;51.310;4.462;2022-09-09T03:38:12;7.32;;;4.30;;
12832;SDS011;6483;51.310;4.462;2022-09-09T03:40:38;12.88;;;4.00;;
12832;SDS011;6483;51.310;4.462;2022-09-09T03:43:04;10.68;;;4.40;;
12832;SDS011;6483;51.310;4.462;2022-09-09T03:45:32;12.82;;;4.55;;
12832;SDS011;6483;51.310;4.462;2022-09-09T03:47:59;11.23;;;4.60;;
12832;SDS011;6483;51.310;4.462;2022-09-09T03:50:25;10.05;;;4.03;;
12832;SDS011;6483;51.310;4.462;2022-09-09T03:52:50;12.67;;;4.10;;
12832;SDS011;6483;51.310;4.462;2022-09-09T03:55:16;8.02;;;4.30;;
12832;SDS011;6483;51.310;4.462;2022-09-09T03:57:42;11.55;;;4.32;;
12832;SDS011;6483;51.310;4.462;2022-09-09T04:00:08;14.05;;;4.63;;
12832;SDS011;6483;51.310;4.462;2022-09-09T04:02:34;9.20;;;4.43;;
12832;SDS011;6483;51.310;4.462;2022-09-09T04:05:00;10.43;;;4.45;;
12832;SDS011;6483;51.310;4.462;2022-09-09T04:07:29;14.10;;;4.82;;
12832;SDS011;6483;51.310;4.462;2022-09-09T04:09:55;8.82;;;4.28;;
12832;SDS011;6483;51.310;4.462;2022-09-09T04:12:22;8.32;;;4.18;;
12832;SDS011;6483;51.310;4.462;2022-09-09T04:14:53;11.52;;;4.60;;
12832;SDS011;6483;51.310;4.462;2022-09-09T04:17:19;10.75;;;5.20;;
12832;SDS011;6483;51.310;4.462;2022-09-09T04:19:44;12.02;;;4.40;;
12832;SDS011;6483;51.310;4.462;2022-09-09T04:22:11;11.07;;;4.35;;
12832;SDS011;6483;51.310;4.462;2022-09-09T04:24:37;13.73;;;5.13;;
12832;SDS011;6483;51.310;4.462;2022-09-09T04:27:05;14.57;;;5.97;;
12832;SDS011;6483;51.310;4.462;2022-09-09T04:29:31;15.05;;;5.32;;
12832;SDS011;6483;51.310;4.462;2022-09-09T04:31:58;10.65;;;4.55;;
12832;SDS011;6483;51.310;4.462;2022-09-09T04:34:30;10.67;;;4.90;;
12832;SDS011;6483;51.310;4.462;2022-09-09T04:36:59;12.40;;;4.65;;
12832;SDS011;6483;51.310;4.462;2022-09-09T04:39:25;13.50;;;5.35;;
12832;SDS011;6483;51.310;4.462;2022-09-09T04:41:51;12.07;;;5.47;;
12832;SDS011;6483;51.310;4.462;2022-09-09T04:44:16;11.77;;;5.57;;
12832;SDS011;6483;51.310;4.462;2022-09-09T04:46:44;13.60;;;6.05;;
12832;SDS011;6483;51.310;4.462;2022-09-09T04:49:10;11.25;;;5.38;;
12832;SDS011;6483;51.310;4.462;2022-09-09T04:51:38;11.50;;;5.30;;
12832;SDS011;6483;51.310;4.462;2022-09-09T04:54:04;8.73;;;5.53;;
12832;SDS011;6483;51.310;4.462;2022-09-09T04:56:49;10.07;;;4.78;;
12832;SDS011;6483;51.310;4.462;2022-09-09T04:59:15;13.18;;;4.85;;
12832;SDS011;6483;51.310;4.462;2022-09-09T05:01:41;11.52;;;5.25;;
12832;SDS011;6483;51.310;4.462;2022-09-09T05:04:13;17.70;;;6.05;;
12832;SDS011;6483;51.310;4.462;2022-09-09T05:06:44;15.25;;;6.22;;
12832;SDS011;6483;51.310;4.462;2022-09-09T05:09:10;11.68;;;4.63;;
12832;SDS011;6483;51.310;4.462;2022-09-09T05:11:36;12.90;;;4.38;;
12832;SDS011;6483;51.310;4.462;2022-09-09T05:14:03;12.75;;;5.72;;
12832;SDS011;6483;51.310;4.462;2022-09-09T05:16:35;16.02;;;5.32;;
12832;SDS011;6483;51.310;4.462;2022-09-09T05:19:01;16.02;;;5.47;;
12832;SDS011;6483;51.310;4.462;2022-09-09T05:21:28;14.15;;;5.55;;
12832;SDS011;6483;51.310;4.462;2022-09-09T05:23:55;18.25;;;4.78;;
12832;SDS011;6483;51.310;4.462;2022-09-09T05:26:28;16.23;;;4.70;;
12832;SDS011;6483;51.310;4.462;2022-09-09T05:28:57;33.85;;;6.13;;
12832;SDS011;6483;51.310;4.462;2022-09-09T05:31:25;11.05;;;4.28;;
12832;SDS011;6483;51.310;4.462;2022-09-09T05:33:53;9.10;;;4.20;;
12832;SDS011;6483;51.310;4.462;2022-09-09T05:36:20;12.80;;;4.95;;
12832;SDS011;6483;51.310;4.462;2022-09-09T05:38:48;16.88;;;5.35;;
12832;SDS011;6483;51.310;4.462;2022-09-09T05:41:15;11.15;;;4.40;;
12832;SDS011;6483;51.310;4.462;2022-09-09T05:43:42;12.07;;;3.90;;
12832;SDS011;6483;51.310;4.462;2022-09-09T05:49:02;16.67;;;4.63;;
12832;SDS011;6483;51.310;4.462;2022-09-09T05:51:28;16.23;;;4.55;;
12832;SDS011;6483;51.310;4.462;2022-09-09T05:53:55;16.20;;;4.82;;
12832;SDS011;6483;51.310;4.462;2022-09-09T05:56:24;11.95;;;4.63;;
12832;SDS011;6483;51.310;4.462;2022-09-09T05:58:52;18.05;;;5.53;;
12832;SDS011;6483;51.310;4.462;2022-09-09T06:01:28;16.80;;;4.65;;
12832;SDS011;6483;51.310;4.462;2022-09-09T06:04:02;15.43;;;5.00;;
12832;SDS011;6483;51.310;4.462;2022-09-09T06:06:32;15.80;;;4.95;;
12832;SDS011;6483;51.310;4.462;2022-09-09T06:09:05;15.88;;;5.15;;
12832;SDS011;6483;51.310;4.462;2022-09-09T06:11:35;19.08;;;4.65;;
12832;SDS011;6483;51.310;4.462;2022-09-09T06:14:04;17.30;;;4.55;;
12832;SDS011;6483;51.310;4.462;2022-09-09T06:16:34;12.82;;;4.00;;
12832;SDS011;6483;51.310;4.462;2022-09-09T06:19:03;13.80;;;4.30;;
12832;SDS011;6483;51.310;4.462;2022-09-09T06:21:30;14.38;;;4.90;;
12832;SDS011;6483;51.310;4.462;2022-09-09T06:23:58;11.40;;;4.40;;
12832;SDS011;6483;51.310;4.462;2022-09-09T06:26:28;14.27;;;4.05;;
12832;SDS011;6483;51.310;4.462;2022-09-09T06:28:55;9.50;;;3.80;;
12832;SDS011;6483;51.310;4.462;2022-09-09T06:31:23;10.65;;;3.85;;
12832;SDS011;6483;51.310;4.462;2022-09-09T06:33:54;15.32;;;4.05;;
12832;SDS011;6483;51.310;4.462;2022-09-09T06:36:21;18.88;;;4.00;;
12832;SDS011;6483;51.310;4.462;2022-09-09T06:38:51;13.73;;;3.55;;
12832;SDS011;6483;51.310;4.462;2022-09-09T06:41:18;16.25;;;4.03;;
12832;SDS011;6483;51.310;4.462;2022-09-09T06:43:45;10.15;;;3.40;;
12832;SDS011;6483;51.310;4.462;2022-09-09T06:46:12;11.45;;;3.53;;
12832;SDS011;6483;51.310;4.462;2022-09-09T06:48:46;13.02;;;2.85;;
12832;SDS011;6483;51.310;4.462;2022-09-09T06:51:19;8.70;;;2.70;;
12832;SDS011;6483;51.310;4.462;2022-09-09T06:53:46;6.75;;;2.50;;
12832;SDS011;6483;51.310;4.462;2022-09-09T06:56:21;9.43;;;2.50;;
12832;SDS011;6483;51.310;4.462;2022-09-09T06:58:53;9.30;;;2.42;;
12832;SDS011;6483;51.310;4.462;2022-09-09T07:01:30;11.02;;;2.63;;
12832;SDS011;6483;51.310;4.462;2022-09-09T07:04:00;10.18;;;2.92;;
12832;SDS011;6483;51.310;4.462;2022-09-09T07:06:37;7.60;;;1.83;;
12832;SDS011;6483;51.310;4.462;2022-09-09T07:09:05;9.10;;;2.25;;
12832;SDS011;6483;51.310;4.462;2022-09-09T07:11:33;11.05;;;2.65;;
12832;SDS011;6483;51.310;4.462;2022-09-09T07:14:22;8.95;;;2.28;;
12832;SDS011;6483;51.310;4.462;2022-09-09T07:16:50;5.88;;;2.13;;
12832;SDS011;6483;51.310;4.462;2022-09-09T07:19:22;7.95;;;2.28;;
12832;SDS011;6483;51.310;4.462;2022-09-09T07:21:48;6.95;;;2.17;;
12832;SDS011;6483;51.310;4.462;2022-09-09T07:24:17;7.80;;;1.95;;
12832;SDS011;6483;51.310;4.462;2022-09-09T07:26:46;12.27;;;2.38;;
12832;SDS011;6483;51.310;4.462;2022-09-09T07:29:11;8.23;;;2.42;;
12832;SDS011;6483;51.310;4.462;2022-09-09T07:31:39;9.50;;;2.78;;
12832;SDS011;6483;51.310;4.462;2022-09-09T07:34:05;14.35;;;2.83;;
12832;SDS011;6483;51.310;4.462;2022-09-09T07:36:35;9.07;;;1.90;;
12832;SDS011;6483;51.310;4.462;2022-09-09T07:39:04;7.30;;;2.40;;
12832;SDS011;6483;51.310;4.462;2022-09-09T07:41:42;10.38;;;3.05;;
12832;SDS011;6483;51.310;4.462;2022-09-09T07:44:32;9.27;;;2.25;;
12832;SDS011;6483;51.310;4.462;2022-09-09T07:47:03;8.77;;;2.33;;
12832;SDS011;6483;51.310;4.462;2022-09-09T07:49:28;11.02;;;2.38;;
12832;SDS011;6483;51.310;4.462;2022-09-09T07:51:57;10.98;;;2.10;;
12832;SDS011;6483;51.310;4.462;2022-09-09T07:54:26;6.93;;;2.10;;
12832;SDS011;6483;51.310;4.462;2022-09-09T07:56:52;7.22;;;2.30;;
12832;SDS011;6483;51.310;4.462;2022-09-09T07:59:24;11.07;;;2.20;;
12832;SDS011;6483;51.310;4.462;2022-09-09T08:01:50;7.15;;;1.90;;
12832;SDS011;6483;51.310;4.462;2022-09-09T08:04:23;9.13;;;1.80;;
12832;SDS011;6483;51.310;4.462;2022-09-09T08:06:58;9.13;;;2.15;;
12832;SDS011;6483;51.310;4.462;2022-09-09T08:09:26;8.82;;;2.08;;
12832;SDS011;6483;51.310;4.462;2022-09-09T08:11:54;5.88;;;1.85;;
12832;SDS011;6483;51.310;4.462;2022-09-09T08:14:23;5.28;;;1.42;;
12832;SDS011;6483;51.310;4.462;2022-09-09T08:16:52;9.57;;;2.00;;
12832;SDS011;6483;51.310;4.462;2022-09-09T08:19:22;5.03;;;1.70;;
12832;SDS011;6483;51.310;4.462;2022-09-09T08:21:51;10.27;;;2.25;;
12832;SDS011;6483;51.310;4.462;2022-09-09T08:24:17;11.18;;;2.17;;
12832;SDS011;6483;51.310;4.462;2022-09-09T08:26:49;6.07;;;2.15;;
12832;SDS011;6483;51.310;4.462;2022-09-09T08:29:18;9.48;;;1.85;;
12832;SDS011;6483;51.310;4.462;2022-09-09T08:31:48;10.45;;;2.30;;
12832;SDS011;6483;51.310;4.462;2022-09-09T08:34:16;12.70;;;2.05;;
12832;SDS011;6483;51.310;4.462;2022-09-09T08:36:44;7.47;;;1.67;;
12832;SDS011;6483;51.310;4.462;2022-09-09T08:39:15;5.47;;;1.67;;
12832;SDS011;6483;51.310;4.462;2022-09-09T08:50:25;7.63;;;2.08;;
12832;SDS011;6483;51.310;4.462;2022-09-09T08:53:17;6.68;;;1.83;;
12832;SDS011;6483;51.310;4.462;2022-09-09T08:55:51;9.38;;;2.08;;
12832;SDS011;6483;51.310;4.462;2022-09-09T08:58:28;8.57;;;2.22;;
12832;SDS011;6483;51.310;4.462;2022-09-09T09:04:21;7.35;;;1.70;;
12832;SDS011;6483;51.310;4.462;2022-09-09T09:07:07;8.48;;;2.22;;
12832;SDS011;6483;51.310;4.462;2022-09-09T09:09:57;9.07;;;2.05;;
12832;SDS011;6483;51.310;4.462;2022-09-09T09:12:35;5.53;;;1.73;;
12832;SDS011;6483;51.310;4.462;2022-09-09T09:15:25;7.40;;;2.33;;
12832;SDS011;6483;51.310;4.462;2022-09-09T09:17:54;7.25;;;1.60;;
12832;SDS011;6483;51.310;4.462;2022-09-09T09:20:28;5.88;;;1.42;;
12832;SDS011;6483;51.310;4.462;2022-09-09T09:23:26;8.70;;;2.05;;
12832;SDS011;6483;51.310;4.462;2022-09-09T09:26:00;6.28;;;1.80;;
12832;SDS011;6483;51.310;4.462;2022-09-09T09:28:30;4.95;;;1.42;;
12832;SDS011;6483;51.310;4.462;2022-09-09T09:31:06;5.07;;;1.67;;
12832;SDS011;6483;51.310;4.462;2022-09-09T09:36:14;5.05;;;2.00;;
12832;SDS011;6483;51.310;4.462;2022-09-09T09:38:57;8.43;;;1.50;;
12832;SDS011;6483;51.310;4.462;2022-09-09T09:44:03;8.05;;;1.70;;
12832;SDS011;6483;51.310;4.462;2022-09-09T09:46:30;6.50;;;2.17;;
12832;SDS011;6483;51.310;4.462;2022-09-09T09:49:03;9.00;;;2.00;;
12832;SDS011;6483;51.310;4.462;2022-09-09T09:51:31;6.70;;;2.13;;
12832;SDS011;6483;51.310;4.462;2022-09-09T09:57:12;6.45;;;2.28;;
12832;SDS011;6483;51.310;4.462;2022-09-09T09:59:40;7.22;;;2.30;;
12832;SDS011;6483;51.310;4.462;2022-09-09T10:02:16;8.85;;;1.85;;
12832;SDS011;6483;51.310;4.462;2022-09-09T10:04:59;7.50;;;2.17;;
12832;SDS011;6483;51.310;4.462;2022-09-09T10:07:29;7.90;;;2.00;;
12832;SDS011;6483;51.310;4.462;2022-09-09T10:09:56;8.20;;;2.08;;
12832;SDS011;6483;51.310;4.462;2022-09-09T10:18:38;9.13;;;2.40;;
12832;SDS011;6483;51.310;4.462;2022-09-09T10:56:16;4.03;;;1.67;;
12832;SDS011;6483;51.310;4.462;2022-09-09T11:04:22;5.20;;;1.52;;
12832;SDS011;6483;51.310;4.462;2022-09-09T11:07:17;3.50;;;1.75;;
12832;SDS011;6483;51.310;4.462;2022-09-09T11:09:50;4.07;;;1.38;;
12832;SDS011;6483;51.310;4.462;2022-09-09T11:12:21;5.00;;;1.85;;
12832;SDS011;6483;51.310;4.462;2022-09-09T11:14:51;6.60;;;1.42;;
12832;SDS011;6483;51.310;4.462;2022-09-09T11:20:12;5.10;;;1.40;;
12832;SDS011;6483;51.310;4.462;2022-09-09T11:25:39;6.15;;;1.45;;
12832;SDS011;6483;51.310;4.462;2022-09-09T11:34:33;4.70;;;1.30;;
12832;SDS011;6483;51.310;4.462;2022-09-09T11:37:10;5.55;;;1.73;;
12832;SDS011;6483;51.310;4.462;2022-09-09T11:40:07;3.85;;;1.10;;
12832;SDS011;6483;51.310;4.462;2022-09-09T11:45:40;2.35;;;1.05;;
12832;SDS011;6483;51.310;4.462;2022-09-09T11:51:11;3.22;;;1.38;;
12832;SDS011;6483;51.310;4.462;2022-09-09T11:53:54;4.95;;;1.08;;
12832;SDS011;6483;51.310;4.462;2022-09-09T11:56:44;4.00;;;1.10;;
12832;SDS011;6483;51.310;4.462;2022-09-09T11:59:52;3.33;;;1.30;;
12832;SDS011;6483;51.310;4.462;2022-09-09T12:02:50;3.42;;;1.10;;
12832;SDS011;6483;51.310;4.462;2022-09-09T12:05:19;1.85;;;0.80;;
12832;SDS011;6483;51.310;4.462;2022-09-09T12:07:52;6.85;;;1.23;;
12832;SDS011;6483;51.310;4.462;2022-09-09T12:10:35;4.63;;;1.38;;
12832;SDS011;6483;51.310;4.462;2022-09-09T12:13:15;3.97;;;1.40;;
12832;SDS011;6483;51.310;4.462;2022-09-09T12:18:35;2.13;;;1.00;;
12832;SDS011;6483;51.310;4.462;2022-09-09T12:21:08;3.85;;;1.52;;
12832;SDS011;6483;51.310;4.462;2022-09-09T12:28:02;6.00;;;0.80;;
12832;SDS011;6483;51.310;4.462;2022-09-09T12:30:08;2.47;;;0.98;;
12832;SDS011;6483;51.310;4.462;2022-09-09T12:33:01;2.30;;;1.00;;
12832;SDS011;6483;51.310;4.462;2022-09-09T12:35:36;2.78;;;1.27;;
12832;SDS011;6483;51.310;4.462;2022-09-09T12:38:06;3.38;;;1.08;;
12832;SDS011;6483;51.310;4.462;2022-09-09T12:40:54;2.47;;;1.20;;
12832;SDS011;6483;51.310;4.462;2022-09-09T12:43:50;2.97;;;0.88;;
12832;SDS011;6483;51.310;4.462;2022-09-09T12:46:29;2.72;;;1.20;;
12832;SDS011;6483;51.310;4.462;2022-09-09T12:48:57;3.08;;;1.02;;
12832;SDS011;6483;51.310;4.462;2022-09-09T12:51:24;3.22;;;1.08;;
12832;SDS011;6483;51.310;4.462;2022-09-09T12:53:53;3.65;;;1.02;;
12832;SDS011;6483;51.310;4.462;2022-09-09T12:56:21;1.45;;;0.80;;
12832;SDS011;6483;51.310;4.462;2022-09-09T12:59:36;3.22;;;1.27;;
12832;SDS011;6483;51.310;4.462;2022-09-09T13:04:50;4.00;;;1.25;;
12832;SDS011;6483;51.310;4.462;2022-09-09T13:07:41;4.47;;;1.40;;
12832;SDS011;6483;51.310;4.462;2022-09-09T13:10:10;4.43;;;1.10;;
12832;SDS011;6483;51.310;4.462;2022-09-09T13:12:37;2.53;;;0.95;;
12832;SDS011;6483;51.310;4.462;2022-09-09T13:15:03;4.20;;;1.15;;
12832;SDS011;6483;51.310;4.462;2022-09-09T13:17:29;2.88;;;1.02;;
12832;SDS011;6483;51.310;4.462;2022-09-09T13:20:16;3.75;;;1.20;;
12832;SDS011;6483;51.310;4.462;2022-09-09T13:22:44;3.08;;;1.02;;
12832;SDS011;6483;51.310;4.462;2022-09-09T13:27:38;3.67;;;1.08;;
12832;SDS011;6483;51.310;4.462;2022-09-09T13:30:26;6.15;;;1.20;;
12832;SDS011;6483;51.310;4.462;2022-09-09T13:35:55;2.97;;;1.00;;
12832;SDS011;6483;51.310;4.462;2022-09-09T13:38:32;2.60;;;1.02;;
12832;SDS011;6483;51.310;4.462;2022-09-09T13:41:08;2.65;;;0.85;;
12832;SDS011;6483;51.310;4.462;2022-09-09T13:43:38;3.15;;;1.00;;
12832;SDS011;6483;51.310;4.462;2022-09-09T13:51:45;3.58;;;0.90;;
12832;SDS011;6483;51.310;4.462;2022-09-09T13:54:19;1.98;;;0.73;;
12832;SDS011;6483;51.310;4.462;2022-09-09T13:56:45;3.78;;;1.58;;
12832;SDS011;6483;51.310;4.462;2022-09-09T13:59:12;3.40;;;1.45;;
12832;SDS011;6483;51.310;4.462;2022-09-09T14:01:40;6.40;;;1.65;;
12832;SDS011;6483;51.310;4.462;2022-09-09T14:04:06;5.25;;;1.40;;
12832;SDS011;6483;51.310;4.462;2022-09-09T14:06:34;6.10;;;1.95;;
12832;SDS011;6483;51.310;4.462;2022-09-09T14:09:04;4.82;;;2.00;;
12832;SDS011;6483;51.310;4.462;2022-09-09T14:11:30;5.32;;;1.77;;
12832;SDS011;6483;51.310;4.462;2022-09-09T14:13:56;5.15;;;2.25;;
12832;SDS011;6483;51.310;4.462;2022-09-09T14:16:21;2.95;;;1.52;;
12832;SDS011;6483;51.310;4.462;2022-09-09T14:18:47;3.72;;;1.40;;
12832;SDS011;6483;51.310;4.462;2022-09-09T14:21:16;3.75;;;1.38;;
12832;SDS011;6483;51.310;4.462;2022-09-09T14:23:43;5.65;;;1.88;;
12832;SDS011;6483;51.310;4.462;2022-09-09T14:26:09;5.80;;;1.30;;
12832;SDS011;6483;51.310;4.462;2022-09-09T14:28:35;3.03;;;1.45;;
12832;SDS011;6483;51.310;4.462;2022-09-09T14:31:05;3.00;;;1.45;;
12832;SDS011;6483;51.310;4.462;2022-09-09T14:33:31;3.50;;;1.52;;
12832;SDS011;6483;51.310;4.462;2022-09-09T14:36:01;3.25;;;1.70;;
12832;SDS011;6483;51.310;4.462;2022-09-09T14:38:28;3.40;;;1.38;;
12832;SDS011;6483;51.310;4.462;2022-09-09T14:40:56;2.70;;;1.20;;
12832;SDS011;6483;51.310;4.462;2022-09-09T14:43:24;2.17;;;1.40;;
12832;SDS011;6483;51.310;4.462;2022-09-09T14:45:51;3.22;;;1.60;;
12832;SDS011;6483;51.310;4.462;2022-09-09T14:48:17;2.03;;;1.35;;
12832;SDS011;6483;51.310;4.462;2022-09-09T14:50:46;5.30;;;1.85;;
12832;SDS011;6483;51.310;4.462;2022-09-09T14:53:16;3.80;;;1.70;;
12832;SDS011;6483;51.310;4.462;2022-09-09T14:55:42;1.50;;;1.40;;
12832;SDS011;6483;51.310;4.462;2022-09-09T14:58:08;1.85;;;1.63;;
12832;SDS011;6483;51.310;4.462;2022-09-09T15:00:36;4.10;;;2.10;;
12832;SDS011;6483;51.310;4.462;2022-09-09T15:03:05;3.65;;;1.75;;
12832;SDS011;6483;51.310;4.462;2022-09-09T15:05:31;5.28;;;2.20;;
12832;SDS011;6483;51.310;4.462;2022-09-09T15:07:56;6.63;;;2.20;;
12832;SDS011;6483;51.310;4.462;2022-09-09T15:10:25;4.28;;;2.08;;
12832;SDS011;6483;51.310;4.462;2022-09-09T15:12:51;4.55;;;1.58;;
12832;SDS011;6483;51.310;4.462;2022-09-09T15:15:20;4.57;;;2.13;;
12832;SDS011;6483;51.310;4.462;2022-09-09T15:17:46;2.95;;;1.77;;
12832;SDS011;6483;51.310;4.462;2022-09-09T15:20:15;4.05;;;2.08;;
12832;SDS011;6483;51.310;4.462;2022-09-09T15:22:44;2.05;;;1.90;;
12832;SDS011;6483;51.310;4.462;2022-09-09T15:25:10;3.90;;;1.95;;
12832;SDS011;6483;51.310;4.462;2022-09-09T15:27:37;4.53;;;1.40;;
12832;SDS011;6483;51.310;4.462;2022-09-09T15:30:04;2.83;;;1.52;;
12832;SDS011;6483;51.310;4.462;2022-09-09T15:32:35;5.18;;;1.27;;
12832;SDS011;6483;51.310;4.462;2022-09-09T15:35:03;2.78;;;1.58;;
12832;SDS011;6483;51.310;4.462;2022-09-09T15:37:32;2.67;;;1.67;;
12832;SDS011;6483;51.310;4.462;2022-09-09T15:40:01;3.38;;;1.40;;
12832;SDS011;6483;51.310;4.462;2022-09-09T15:42:33;5.38;;;1.40;;
12832;SDS011;6483;51.310;4.462;2022-09-09T15:45:02;2.08;;;1.45;;
12832;SDS011;6483;51.310;4.462;2022-09-09T15:47:30;3.25;;;1.40;;
12832;SDS011;6483;51.310;4.462;2022-09-09T15:50:01;3.47;;;1.45;;
12832;SDS011;6483;51.310;4.462;2022-09-09T15:52:28;3.50;;;1.50;;
12832;SDS011;6483;51.310;4.462;2022-09-09T15:55:01;6.05;;;1.75;;
12832;SDS011;6483;51.310;4.462;2022-09-09T15:57:29;3.35;;;1.60;;
12832;SDS011;6483;51.310;4.462;2022-09-09T15:59:55;3.30;;;1.80;;
12832;SDS011;6483;51.310;4.462;2022-09-09T16:02:23;3.03;;;1.98;;
12832;SDS011;6483;51.310;4.462;2022-09-09T16:04:49;4.00;;;1.95;;
12832;SDS011;6483;51.310;4.462;2022-09-09T16:07:15;3.72;;;1.85;;
12832;SDS011;6483;51.310;4.462;2022-09-09T16:09:40;3.30;;;2.13;;
12832;SDS011;6483;51.310;4.462;2022-09-09T16:12:08;7.00;;;2.30;;
12832;SDS011;6483;51.310;4.462;2022-09-09T16:14:38;5.18;;;2.15;;
12832;SDS011;6483;51.310;4.462;2022-09-09T16:17:04;4.55;;;2.10;;
12832;SDS011;6483;51.310;4.462;2022-09-09T16:19:34;4.72;;;1.80;;
12832;SDS011;6483;51.310;4.462;2022-09-09T16:22:02;4.13;;;1.75;;
12832;SDS011;6483;51.310;4.462;2022-09-09T16:24:29;4.03;;;1.70;;
12832;SDS011;6483;51.310;4.462;2022-09-09T16:27:01;2.90;;;1.67;;
12832;SDS011;6483;51.310;4.462;2022-09-09T16:29:27;3.05;;;1.73;;
12832;SDS011;6483;51.310;4.462;2022-09-09T16:31:53;3.83;;;1.92;;
12832;SDS011;6483;51.310;4.462;2022-09-09T16:34:19;4.43;;;1.95;;
12832;SDS011;6483;51.310;4.462;2022-09-09T16:36:46;3.90;;;1.85;;
12832;SDS011;6483;51.310;4.462;2022-09-09T16:39:14;2.92;;;1.65;;
12832;SDS011;6483;51.310;4.462;2022-09-09T16:41:42;6.22;;;2.17;;
12832;SDS011;6483;51.310;4.462;2022-09-09T16:44:10;4.47;;;2.25;;
12832;SDS011;6483;51.310;4.462;2022-09-09T16:46:38;2.97;;;1.90;;
12832;SDS011;6483;51.310;4.462;2022-09-09T16:49:07;5.18;;;2.20;;
12832;SDS011;6483;51.310;4.462;2022-09-09T16:51:39;4.72;;;2.10;;
12832;SDS011;6483;51.310;4.462;2022-09-09T16:54:09;6.18;;;2.40;;
12832;SDS011;6483;51.310;4.462;2022-09-09T16:56:38;4.10;;;2.58;;
12832;SDS011;6483;51.310;4.462;2022-09-09T16:59:12;6.45;;;2.20;;
12832;SDS011;6483;51.310;4.462;2022-09-09T17:01:40;6.35;;;2.33;;
12832;SDS011;6483;51.310;4.462;2022-09-09T17:04:12;6.82;;;2.50;;
12832;SDS011;6483;51.310;4.462;2022-09-09T17:06:41;4.82;;;2.55;;
12832;SDS011;6483;51.310;4.462;2022-09-09T17:09:10;3.33;;;2.20;;
12832;SDS011;6483;51.310;4.462;2022-09-09T17:11:39;3.80;;;2.20;;
12832;SDS011;6483;51.310;4.462;2022-09-09T17:14:08;7.50;;;3.05;;
12832;SDS011;6483;51.310;4.462;2022-09-09T17:16:36;7.63;;;2.45;;
12832;SDS011;6483;51.310;4.462;2022-09-09T17:19:05;4.30;;;1.98;;
12832;SDS011;6483;51.310;4.462;2022-09-09T17:21:31;5.07;;;2.20;;
12832;SDS011;6483;51.310;4.462;2022-09-09T17:23:58;6.40;;;2.58;;
12832;SDS011;6483;51.310;4.462;2022-09-09T17:26:25;2.05;;;1.85;;
12832;SDS011;6483;51.310;4.462;2022-09-09T17:28:56;2.42;;;1.70;;
12832;SDS011;6483;51.310;4.462;2022-09-09T17:31:26;4.20;;;2.13;;
12832;SDS011;6483;51.310;4.462;2022-09-09T17:33:54;5.47;;;1.60;;
12832;SDS011;6483;51.310;4.462;2022-09-09T17:36:25;2.50;;;1.63;;
12832;SDS011;6483;51.310;4.462;2022-09-09T17:38:55;1.92;;;1.35;;
12832;SDS011;6483;51.310;4.462;2022-09-09T17:41:29;2.92;;;1.58;;
12832;SDS011;6483;51.310;4.462;2022-09-09T17:43:57;2.90;;;1.70;;
12832;SDS011;6483;51.310;4.462;2022-09-09T17:46:25;1.85;;;1.48;;
12832;SDS011;6483;51.310;4.462;2022-09-09T17:48:56;3.35;;;1.70;;
12832;SDS011;6483;51.310;4.462;2022-09-09T17:51:24;6.10;;;1.80;;
12832;SDS011;6483;51.310;4.462;2022-09-09T17:53:53;2.25;;;1.95;;